LROP Airport Information

Runway Information
Runway 08R Length 11484 ft width 148 ft
Elevation 314 ft Threshold ft Heading 84
Runway 26L Length 11484 ft Width 148 ft
Elevation 303 ft Threshold ft Heading 264
Runway 08L Length 11484 ft width 148 ft
Elevation 313 ft Threshold ft Heading 84
Runway 26R Length 11484 ft Width 148 ft
Elevation 303 ft Threshold ft Heading 264
Airport Frequencies
Type APP Name BUCURESTI Frequency 118.25 MHZ
Type ATIS Name OTOPENI AT Frequency 118.5 MHZ
Type GND Name OTOPENI GN Frequency 121.7 MHZ
Type TWR Name OTOPENI TW Frequency 120.9 MHZ
Airport Navaids
Type VOR-DME Name Floresti Frequency 112200 KHZ
Type NDB Name Otopeni Frequency 349 KHZ
Type NDB Name Otopeni Frequency 268 KHZ
Type NDB Name Otopeni Frequency 370 KHZ
Type VOR-DME Name Strejnic Frequency 113200 KHZ
Airport Weather Information & NOTAM
ADDS - METARS form results

(0224 UTC 30 June 2022)
Data provider http://aviationweather.gov/metar/data/
 
METAR text: LROP 300200Z VRB02KT CAVOK 19/18 Q1014 NOSIG
Conditions at: LROP (BUCHAREST/OTOPEN, RO) observed 0200 UTC 30 June 2022
Temperature: 19.0°C (66°F)
Dewpoint: 18.0°C (64°F) [RH = 94%]
Pressure (altimeter): 29.94 inches Hg (1014.0 mb)
Winds: variable direction winds at 2 MPH (2 knots; 1.0 m/s)
Visibility: 6 or more miles (10+ km)
Ceiling: ceiling and visibility are OK
Clouds: unknown
Weather: no significant weather observed at this time

METAR text: LROP 300130Z 03001KT CAVOK 19/18 Q1014 NOSIG
Conditions at: LROP (BUCHAREST/OTOPEN, RO) observed 0130 UTC 30 June 2022
Temperature: 19.0°C (66°F)
Dewpoint: 18.0°C (64°F) [RH = 94%]
Pressure (altimeter): 29.94 inches Hg (1014.0 mb)
Winds: from the NNE (30 degrees) at 1 MPH (1 knots; 0.5 m/s)
Visibility: 6 or more miles (10+ km)
Ceiling: ceiling and visibility are OK
Clouds: unknown
Weather: no significant weather observed at this time

Forecast for: LROP (BUCHAREST/OTOPEN, RO)
Text: TAF LROP 292300Z 3000/0100 VRB04KT CAVOK
Forecast period: 0000 UTC 30 June 2022 to 0000 UTC 01 July 2022
Forecast type: FROM: standard forecast or significant change
Winds: variable direction winds at 5 MPH (4 knots; 2.1 m/s)
Visibility: 6 or more miles (10+ km)
Ceiling: unknown
Clouds: missing
Weather: NSW  (no significant weather)